Time;durP1;ratioP1;P1;durP2;ratioP2;P2;SDS_P1;SDS_P2;PMS_P1;PMS_P2;Temp;Humidity;BMP_temperature;BMP_pressure;BME280_temperature;BME280_humidity;BME280_pressure;Samples;Min_cycle;Max_cycle;Signal;HPM_P1;HPM_P2
2022/02/27 00:01:17;;;;;;;;;11.75;11.00;;;;;9.53;100.00;102341.53;6332647;22;45430;-91
2022/02/27 00:03:42;;;;;;;;;11.25;6.50;;;;;9.50;100.00;102332.63;6333606;22;45392;-90
2022/02/27 00:06:08;;;;;;;;;6.50;5.75;;;;;9.47;100.00;102329.78;6335351;22;45388;-91
2022/02/27 00:08:33;;;;;;;;;5.50;5.50;;;;;9.49;100.00;102330.78;6335405;22;45370;-91
2022/02/27 00:10:59;;;;;;;;;11.50;8.00;;;;;9.46;100.00;102327.94;6331404;22;45374;-91
2022/02/27 00:13:24;;;;;;;;;10.00;8.25;;;;;9.42;100.00;102322.34;6333692;22;45539;-91
2022/02/27 00:15:49;;;;;;;;;6.00;3.50;;;;;9.45;100.00;102340.94;6359739;22;47747;-91
2022/02/27 00:18:14;;;;;;;;;10.00;9.25;;;;;9.43;100.00;102342.53;6333578;22;45999;-92
2022/02/27 00:20:40;;;;;;;;;7.50;6.00;;;;;9.40;100.00;102332.72;6334224;22;49471;-92
2022/02/27 00:23:06;;;;;;;;;7.00;7.00;;;;;9.34;100.00;102329.63;6334990;22;45549;-90
2022/02/27 00:25:31;;;;;;;;;7.25;6.25;;;;;9.27;100.00;102334.41;6336215;22;45564;-90
2022/02/27 00:27:57;;;;;;;;;11.00;7.75;;;;;9.26;100.00;102326.41;6331173;22;45360;-91
2022/02/27 00:30:22;;;;;;;;;9.25;7.25;;;;;9.28;100.00;102332.69;6334245;22;45268;-91
2022/02/27 00:32:47;;;;;;;;;7.75;5.50;;;;;9.28;100.00;102341.47;6334593;22;45212;-91
2022/02/27 00:35:13;;;;;;;;;8.00;7.33;;;;;9.26;100.00;102337.81;6334144;22;45683;-91
2022/02/27 00:37:38;;;;;;;;;8.50;7.00;;;;;9.28;100.00;102328.38;6331123;22;45246;-91
2022/02/27 00:40:06;;;;;;;;;10.50;7.00;;;;;9.31;100.00;102329.38;6359339;22;45330;-91
2022/02/27 00:42:31;;;;;;;;;11.50;10.50;;;;;9.22;100.00;102329.63;6357976;22;45597;-92
2022/02/27 00:44:57;;;;;;;;;9.75;6.25;;;;;9.21;100.00;102325.16;6331681;22;48185;-91
2022/02/27 00:47:22;;;;;;;;;10.50;8.25;;;;;9.20;100.00;102325.97;6357837;22;45479;-91
2022/02/27 00:49:47;;;;;;;;;9.25;6.75;;;;;9.21;100.00;102336.56;6359159;22;45288;-91
2022/02/27 00:52:13;;;;;;;;;7.25;7.25;;;;;9.23;100.00;102336.66;6359908;22;45395;-92
2022/02/27 00:54:38;;;;;;;;;11.00;6.00;;;;;9.18;100.00;102323.22;6334614;22;46249;-92
2022/02/27 00:57:04;;;;;;;;;7.00;7.00;;;;;9.25;100.00;102340.34;6332038;22;45304;-92
2022/02/27 00:59:29;;;;;;;;;10.50;9.75;;;;;9.24;100.00;102335.88;6332147;22;45292;-91
2022/02/27 01:01:55;;;;;;;;;6.50;5.75;;;;;9.16;100.00;102327.44;6332343;22;45314;-91
2022/02/27 01:04:20;;;;;;;;;10.75;9.00;;;;;9.13;100.00;102332.44;6331925;22;47914;-91
2022/02/27 01:06:45;;;;;;;;;9.75;7.25;;;;;9.13;100.00;102329.81;6333231;22;45866;-91
2022/02/27 01:09:11;;;;;;;;;7.50;7.25;;;;;9.12;100.00;102331.50;6359764;22;45299;-91
2022/02/27 01:11:36;;;;;;;;;11.00;6.50;;;;;9.12;100.00;102335.84;6331317;22;45314;-92
2022/02/27 01:14:02;;;;;;;;;11.00;10.25;;;;;9.15;100.00;102341.31;6335480;22;45296;-92
2022/02/27 01:16:27;;;;;;;;;9.75;9.00;;;;;9.10;100.00;102330.47;6358564;22;45315;-92
2022/02/27 01:18:53;;;;;;;;;11.00;10.00;;;;;9.10;100.00;102330.47;6331375;22;45366;-92
2022/02/27 01:21:19;;;;;;;;;9.00;9.00;;;;;9.11;100.00;102334.03;6360197;22;45425;-91
2022/02/27 01:23:46;;;;;;;;;6.50;6.00;;;;;9.11;100.00;102331.41;6334538;22;48046;-92
2022/02/27 01:26:12;;;;;;;;;10.25;9.00;;;;;9.02;100.00;102315.91;6330989;22;45788;-91
2022/02/27 01:28:39;;;;;;;;;13.50;10.75;;;;;9.01;100.00;102317.59;6359593;22;45241;-91
2022/02/27 01:31:07;;;;;;;;;10.50;7.50;;;;;8.97;100.00;102320.75;6331298;22;45290;-92
2022/02/27 01:33:33;;;;;;;;;12.00;12.00;;;;;8.96;100.00;102323.28;6358242;22;48195;-92
2022/02/27 01:35:58;;;;;;;;;13.25;10.75;;;;;8.93;100.00;102303.00;6332477;22;45948;-92
2022/02/27 01:38:23;;;;;;;;;12.00;7.00;;;;;8.96;100.00;102323.28;6334976;22;45233;-92
2022/02/27 01:40:49;;;;;;;;;15.25;10.25;;;;;8.91;100.00;102301.97;6328873;22;45337;-91
2022/02/27 01:43:14;;;;;;;;;13.50;8.25;;;;;8.91;100.00;102304.59;6333221;22;46070;-91
2022/02/27 01:45:39;;;;;;;;;9.25;6.50;;;;;8.84;100.00;102305.81;6333406;22;45275;-91
2022/02/27 01:48:05;;;;;;;;;10.75;8.50;;;;;8.82;100.00;102312.63;6330770;22;45336;-92
2022/02/27 01:50:30;;;;;;;;;6.50;6.50;;;;;8.81;100.00;102314.31;6331417;22;45393;-91
2022/02/27 01:52:56;;;;;;;;;7.75;7.00;;;;;8.77;100.00;102311.34;6358533;22;47095;-91
2022/02/27 01:55:21;;;;;;;;;7.25;7.25;;;;;8.79;100.00;102320.25;6332543;22;45218;-91
2022/02/27 01:57:47;;;;;;;;;9.75;6.00;;;;;8.68;100.00;102312.50;6357361;22;45221;-91
2022/02/27 02:00:14;;;;;;;;;8.25;5.75;;;;;8.77;100.00;102313.97;6334768;22;45287;-91
2022/02/27 02:02:42;;;;;;;;;7.00;7.00;;;;;8.73;100.00;102307.59;6358419;22;47843;-92
2022/02/27 02:05:08;;;;;;;;;9.75;7.00;;;;;8.71;100.00;102311.81;6332444;22;45688;-91
2022/02/27 02:07:34;;;;;;;;;7.25;7.25;;;;;8.69;100.00;102306.44;6332371;22;45323;-91
2022/02/27 02:09:59;;;;;;;;;9.25;6.00;;;;;8.64;100.00;102307.78;6332256;22;45399;-92
2022/02/27 02:12:26;;;;;;;;;7.50;7.50;;;;;8.69;100.00;102316.00;6330208;22;47490;-91
2022/02/27 02:14:51;;;;;;;;;7.75;7.25;;;;;8.60;100.00;102303.09;6359284;22;46155;-91
2022/02/27 02:17:17;;;;;;;;;11.50;9.50;;;;;8.62;100.00;102304.13;6331377;22;45338;-91
2022/02/27 02:19:42;;;;;;;;;7.25;7.25;;;;;8.57;100.00;102288.03;6332622;22;45597;-91
2022/02/27 02:22:07;;;;;;;;;3.50;3.50;;;;;8.58;100.00;102299.44;6333738;22;46067;-92
2022/02/27 02:24:33;;;;;;;;;10.25;9.25;;;;;8.52;100.00;102275.38;6332180;22;46077;-91
2022/02/27 02:26:58;;;;;;;;;12.50;5.75;;;;;8.50;100.00;102284.00;6357450;22;45395;-91
2022/02/27 02:29:25;;;;;;;;;9.25;9.25;;;;;8.49;100.00;102284.81;6332782;22;45333;-91
2022/02/27 02:31:53;;;;;;;;;7.75;7.75;;;;;8.49;100.00;102286.53;6332287;22;47517;-92
2022/02/27 02:34:21;;;;;;;;;12.75;9.00;;;;;8.46;100.00;102275.78;6334811;22;45320;-90
2022/02/27 02:36:47;;;;;;;;;8.50;7.25;;;;;8.44;100.00;102273.06;6332490;22;45286;-91
2022/02/27 02:39:15;;;;;;;;;7.00;7.00;;;;;8.44;100.00;102269.53;6333589;22;45488;-92
2022/02/27 02:41:41;;;;;;;;;10.75;9.25;;;;;8.42;100.00;102271.13;6331685;22;48185;-91
2022/02/27 02:44:08;;;;;;;;;6.75;6.25;;;;;8.39;100.00;102282.25;6336365;22;45363;-91
2022/02/27 02:46:35;;;;;;;;;8.00;6.00;;;;;8.32;100.00;102265.19;6332530;22;45310;-92
2022/02/27 02:49:01;;;;;;;;;7.00;5.00;;;;;8.33;100.00;102274.84;6333944;22;45222;-91
2022/02/27 02:51:27;;;;;;;;;6.25;5.75;;;;;8.25;100.00;102268.06;6360595;22;47090;-91
2022/02/27 02:53:52;;;;;;;;;8.50;6.75;;;;;8.27;100.00;102277.88;6334385;22;45270;-91
2022/02/27 02:56:18;;;;;;;;;11.50;6.50;;;;;8.32;100.00;102286.09;6331662;22;45266;-91
2022/02/27 02:58:43;;;;;;;;;6.75;5.25;;;;;8.29;100.00;102287.56;6360211;22;45355;-91
2022/02/27 03:01:13;;;;;;;;;7.50;7.50;;;;;8.29;100.00;102288.47;6332521;22;45268;-92
2022/02/27 03:03:40;;;;;;;;;11.25;7.25;;;;;8.25;100.00;102283.78;6332219;22;45274;-91
2022/02/27 03:06:08;;;;;;;;;5.50;5.50;;;;;8.25;100.00;102287.31;6333931;22;45174;-91
2022/02/27 03:08:34;;;;;;;;;6.00;3.00;;;;;8.20;100.00;102280.78;6334438;22;45311;-92
2022/02/27 03:11:00;;;;;;;;;5.25;5.25;;;;;8.20;100.00;102270.31;6331891;22;46202;-92
2022/02/27 03:13:25;;;;;;;;;6.50;4.00;;;;;8.22;100.00;102276.59;6358485;22;45378;-91
2022/02/27 03:15:50;;;;;;;;;3.25;1.25;;;;;8.22;100.00;102273.97;6331764;22;45323;-92
2022/02/27 03:18:16;;;;;;;;;5.50;4.50;;;;;8.23;100.00;102290.59;6359056;22;45298;-92
2022/02/27 03:20:41;;;;;;;;;6.00;6.00;;;;;8.21;100.00;102277.41;6331884;22;48084;-91
2022/02/27 03:23:08;;;;;;;;;6.00;5.00;;;;;8.23;100.00;102272.28;6332091;22;45736;-91
2022/02/27 03:25:33;;;;;;;;;7.00;6.00;;;;;8.21;100.00;102280.00;6349402;22;45281;-91
2022/02/27 03:27:58;;;;;;;;;5.50;5.50;;;;;8.21;100.00;102271.25;6356892;22;44759;-91
2022/02/27 03:30:24;;;;;;;;;6.00;6.00;;;;;8.19;100.00;102280.69;6353962;22;47102;-91
2022/02/27 03:32:49;;;;;;;;;5.00;3.75;;;;;8.21;100.00;102272.16;6353218;22;45248;-91
2022/02/27 03:35:20;;;;;;;;;6.50;5.00;;;;;8.29;100.00;102270.16;6338881;22;45218;-92
2022/02/27 03:37:50;;;;;;;;;6.75;6.00;;;;;8.24;100.00;102281.97;6333645;22;45265;-91
2022/02/27 03:40:19;;;;;;;;;8.75;6.00;;;;;8.25;100.00;102273.31;6331484;22;48267;-92
2022/02/27 03:42:45;;;;;;;;;6.50;5.25;;;;;8.15;100.00;102269.97;6329730;22;45394;-91
2022/02/27 03:45:11;;;;;;;;;6.00;5.25;;;;;8.18;100.00;102271.00;6358468;22;45339;-91
2022/02/27 03:47:37;;;;;;;;;5.50;5.25;;;;;8.13;100.00;102268.00;6334104;22;45418;-91
2022/02/27 03:50:04;;;;;;;;;5.00;4.00;;;;;8.18;100.00;102282.38;6332120;22;48027;-91
2022/02/27 03:52:29;;;;;;;;;5.75;5.00;;;;;8.11;100.00;102285.28;6331429;22;45316;-91
2022/02/27 03:54:54;;;;;;;;;4.50;4.50;;;;;8.10;100.00;102289.59;6358914;22;45249;-91
2022/02/27 03:57:20;;;;;;;;;8.50;6.00;;;;;8.08;100.00;102293.81;6356320;22;45613;-91
2022/02/27 03:59:45;;;;;;;;;8.75;6.25;;;;;8.09;100.00;102289.50;6331624;22;47432;-91
2022/02/27 04:02:11;;;;;;;;;7.00;5.00;;;;;8.09;100.00;102302.56;6333753;22;45252;-91
2022/02/27 04:04:37;;;;;;;;;4.50;4.50;;;;;8.04;100.00;102289.13;6358880;22;45257;-91
2022/02/27 04:07:03;;;;;;;;;7.25;7.25;;;;;7.99;100.00;102291.34;6333369;22;45334;-92
2022/02/27 04:09:28;;;;;;;;;8.50;4.00;;;;;7.91;100.00;102279.38;6334009;22;45315;-92
2022/02/27 04:11:53;;;;;;;;;5.75;5.00;;;;;7.93;100.00;102296.09;6329850;22;45392;-92
2022/02/27 04:14:19;;;;;;;;;6.50;5.25;;;;;7.91;100.00;102287.22;6331103;22;45339;-91
2022/02/27 04:16:44;;;;;;;;;6.75;6.75;;;;;7.88;100.00;102293.13;6331058;22;45496;-91
2022/02/27 04:19:09;;;;;;;;;6.00;6.00;;;;;7.83;100.00;102291.81;6357730;22;50393;-91
2022/02/27 04:21:35;;;;;;;;;7.25;5.75;;;;;7.78;100.00;102288.81;6331407;22;45365;-91
2022/02/27 04:24:01;;;;;;;;;7.00;5.25;;;;;7.76;100.00;102284.25;6333952;22;45256;-91
2022/02/27 04:26:26;;;;;;;;;10.25;9.00;;;;;7.74;100.00;102288.44;6329612;22;45469;-92
2022/02/27 04:28:52;;;;;;;;;7.50;7.00;;;;;7.71;100.00;102282.16;6331108;22;48196;-92
2022/02/27 04:31:17;;;;;;;;;6.50;5.00;;;;;7.73;100.00;102282.28;6331041;22;46284;-91
2022/02/27 04:33:42;;;;;;;;;6.50;6.00;;;;;7.67;100.00;102285.34;6334512;22;45428;-91
2022/02/27 04:36:08;;;;;;;;;4.00;3.25;;;;;7.64;100.00;102289.38;6331194;22;45450;-92
2022/02/27 04:38:33;;;;;;;;;6.25;5.25;;;;;7.62;100.00;102268.34;6358648;22;47033;-91
2022/02/27 04:40:59;;;;;;;;;5.00;5.00;;;;;7.57;100.00;102267.06;6329372;22;45439;-91
2022/02/27 04:43:26;;;;;;;;;5.50;5.00;;;;;7.56;100.00;102280.91;6332317;22;45304;-92
2022/02/27 04:45:51;;;;;;;;;6.00;6.00;;;;;7.54;100.00;102279.88;6333834;22;45174;-92
2022/02/27 04:48:16;;;;;;;;;5.00;5.00;;;;;7.51;100.00;102282.22;6334731;22;45277;-91
2022/02/27 04:50:42;;;;;;;;;5.75;5.75;;;;;7.47;100.00;102268.91;6333945;22;45252;-92
2022/02/27 04:53:07;;;;;;;;;6.00;5.00;;;;;7.47;100.00;102276.75;6332587;22;45318;-91
2022/02/27 04:55:32;;;;;;;;;6.00;6.00;;;;;7.48;100.00;102280.28;6332486;22;45252;-91
2022/02/27 04:57:58;;;;;;;;;6.00;4.75;;;;;7.43;100.00;102268.53;6329982;22;46898;-92
2022/02/27 05:00:23;;;;;;;;;5.00;5.00;;;;;7.41;100.00;102273.63;6331505;22;60432;-91
2022/02/27 05:02:48;;;;;;;;;5.00;5.00;;;;;7.43;100.00;102278.97;6332144;22;45437;-92
2022/02/27 05:05:14;;;;;;;;;6.00;6.00;;;;;7.37;100.00;102276.78;6334495;22;45328;-91
2022/02/27 05:07:39;;;;;;;;;6.75;4.25;;;;;7.32;100.00;102268.53;6333429;22;46324;-92
2022/02/27 05:10:08;;;;;;;;;5.00;5.00;;;;;7.35;100.00;102284.47;6334288;22;45242;-91
2022/02/27 05:12:35;;;;;;;;;3.50;3.50;;;;;7.31;100.00;102282.41;6330448;22;45364;-91
2022/02/27 05:15:00;;;;;;;;;5.75;3.25;;;;;7.26;100.00;102266.34;6332224;22;45322;-92
2022/02/27 05:17:26;;;;;;;;;5.00;5.00;;;;;7.26;100.00;102276.81;6331524;22;47479;-92
2022/02/27 05:19:51;;;;;;;;;6.50;6.00;;;;;7.25;100.00;102269.75;6331941;22;45312;-90
2022/02/27 05:22:17;;;;;;;;;10.00;5.75;;;;;7.22;100.00;102273.78;6331409;22;45328;-91
2022/02/27 05:24:42;;;;;;;;;7.00;5.00;;;;;7.19;100.00;102269.22;6359137;22;45493;-91
2022/02/27 05:27:07;;;;;;;;;9.25;5.25;;;;;7.18;100.00;102274.31;6330801;22;47821;-91
2022/02/27 05:29:32;;;;;;;;;9.75;6.00;;;;;7.13;100.00;102274.84;6333717;22;45986;-91
2022/02/27 05:31:59;;;;;;;;;5.25;5.25;;;;;7.11;100.00;102268.56;6359561;22;45320;-91
2022/02/27 05:34:25;;;;;;;;;4.00;3.75;;;;;7.11;100.00;102276.41;6335732;22;45300;-92
2022/02/27 05:36:51;;;;;;;;;2.25;2.25;;;;;7.12;100.00;102266.88;6334666;22;46023;-91
2022/02/27 05:39:16;;;;;;;;;5.00;4.50;;;;;7.09;100.00;102261.38;6332764;22;45331;-91
2022/02/27 05:41:42;;;;;;;;;7.75;5.50;;;;;7.07;100.00;102260.34;6331708;22;45287;-91
2022/02/27 05:44:08;;;;;;;;;7.75;5.00;;;;;7.09;100.00;102254.47;6360067;22;45395;-92
2022/02/27 05:46:33;;;;;;;;;8.25;4.75;;;;;7.07;100.00;102248.22;6332153;22;47941;-92
2022/02/27 05:48:59;;;;;;;;;4.75;4.75;;;;;7.03;100.00;102252.28;6333110;22;45888;-91
2022/02/27 05:51:24;;;;;;;;;6.00;6.00;;;;;7.05;100.00;102257.63;6359530;22;45366;-91
2022/02/27 05:53:50;;;;;;;;;5.00;4.00;;;;;7.03;100.00;102262.72;6333143;22;45546;-91
2022/02/27 05:56:15;;;;;;;;;4.75;4.75;;;;;6.99;100.00;102252.78;6333488;22;45292;-92
2022/02/27 05:58:40;;;;;;;;;5.00;5.00;;;;;7.02;100.00;102257.34;6335728;22;45174;-91
2022/02/27 06:01:06;;;;;;;;;8.25;7.50;;;;;6.98;100.00;102256.22;6332611;22;45753;-91
2022/02/27 06:03:31;;;;;;;;;6.75;5.75;;;;;6.99;100.00;102254.47;6335740;22;45336;-91
2022/02/27 06:05:56;;;;;;;;;5.75;5.75;;;;;6.99;100.00;102252.78;6334929;22;46256;-91
2022/02/27 06:08:22;;;;;;;;;5.75;5.75;;;;;6.98;100.00;102255.28;6331883;22;45414;-91
2022/02/27 06:10:47;;;;;;;;;6.50;4.75;;;;;6.97;100.00;102258.66;6358258;22;45177;-91
2022/02/27 06:13:12;;;;;;;;;10.75;5.50;;;;;6.97;100.00;102258.66;6332967;22;45349;-92
2022/02/27 06:15:38;;;;;;;;;8.00;5.75;;;;;6.95;100.00;102255.00;6332855;22;46999;-91
2022/02/27 06:18:04;;;;;;;;;3.75;3.75;;;;;6.92;100.00;102264.41;6334815;22;45363;-91
2022/02/27 06:20:29;;;;;;;;;6.00;5.00;;;;;6.94;100.00;102264.53;6333418;22;45335;-91
2022/02/27 06:22:55;;;;;;;;;5.75;5.25;;;;;6.88;100.00;102256.22;6358890;22;45244;-93
2022/02/27 06:25:20;;;;;;;;;6.00;6.00;;;;;6.88;100.00;102258.81;6332629;22;48286;-91
2022/02/27 06:27:46;;;;;;;;;2.00;2.00;;;;;6.87;100.00;102257.91;6331294;22;45895;-91
2022/02/27 06:30:14;;;;;;;;;5.75;2.00;;;;;6.85;100.00;102263.78;6333205;22;45323;-91
2022/02/27 06:32:39;;;;;;;;;5.75;5.75;;;;;6.77;100.00;102258.81;6334278;22;45779;-92
2022/02/27 06:35:07;;;;;;;;;5.00;4.00;;;;;6.82;100.00;102267.94;6359345;22;48223;-91
2022/02/27 06:37:32;;;;;;;;;4.25;4.25;;;;;6.76;100.00;102258.66;6332963;22;45320;-91
2022/02/27 06:39:57;;;;;;;;;8.75;6.00;;;;;6.74;100.00;102258.53;6332119;22;45648;-92
2022/02/27 06:42:23;;;;;;;;;8.50;2.75;;;;;6.77;100.00;102268.34;6329917;22;45492;-92
2022/02/27 06:44:48;;;;;;;;;6.00;5.00;;;;;6.76;100.00;102258.66;6332309;22;47302;-91
2022/02/27 06:47:13;;;;;;;;;5.75;5.75;;;;;6.75;100.00;102262.06;6331716;22;45433;-91
2022/02/27 06:49:40;;;;;;;;;7.50;5.50;;;;;6.77;100.00;102250.06;6358826;22;45735;-90
2022/02/27 06:52:06;;;;;;;;;3.00;3.00;;;;;6.76;100.00;102259.59;6331740;22;45482;-91
2022/02/27 06:54:31;;;;;;;;;5.50;5.50;;;;;6.76;100.00;102258.66;6358695;22;48422;-91
2022/02/27 06:56:56;;;;;;;;;6.75;5.75;;;;;6.78;100.00;102254.47;6330238;22;45913;-91
2022/02/27 06:59:22;;;;;;;;;4.50;4.50;;;;;6.82;100.00;102262.72;6332578;22;45426;-91
2022/02/27 07:01:47;;;;;;;;;12.00;5.75;;;;;6.84;100.00;102252.41;6331606;22;45454;-91
2022/02/27 07:04:12;;;;;;;;;5.00;5.00;;;;;6.87;100.00;102257.91;6332137;22;47138;-91
2022/02/27 07:06:38;;;;;;;;;6.50;5.00;;;;;6.96;100.00;102260.34;6333168;22;45296;-91
2022/02/27 07:09:04;;;;;;;;;11.00;8.25;;;;;6.99;100.00;102273.69;6332435;22;45373;-91
2022/02/27 07:11:29;;;;;;;;;4.25;4.25;;;;;7.04;100.00;102267.16;6333426;22;45237;-91
2022/02/27 07:13:55;;;;;;;;;5.00;5.00;;;;;7.09;100.00;102258.78;6358540;22;60775;-91
2022/02/27 07:16:22;;;;;;;;;5.00;5.00;;;;;7.11;100.00;102258.13;6339458;22;45738;-91
2022/02/27 07:18:53;;;;;;;;;5.25;5.25;;;;;7.24;100.00;102265.28;6355415;22;44677;-91
2022/02/27 07:21:19;;;;;;;;;5.75;4.50;;;;;7.29;100.00;102272.63;6355172;22;45416;-91
2022/02/27 07:23:44;;;;;;;;;4.75;4.75;;;;;7.33;100.00;102266.84;6350834;22;47272;-91
2022/02/27 07:26:09;;;;;;;;;5.00;5.00;;;;;7.37;100.00;102263.72;6342045;22;45286;-91
2022/02/27 07:28:35;;;;;;;;;6.00;5.00;;;;;7.41;100.00;102257.97;6334721;22;45870;-92
2022/02/27 07:31:00;;;;;;;;;4.25;2.75;;;;;7.48;100.00;102256.75;6333229;22;45328;-91
2022/02/27 07:33:25;;;;;;;;;6.00;5.25;;;;;7.51;100.00;102248.25;6335533;22;57086;-91
2022/02/27 07:35:52;;;;;;;;;4.25;4.00;;;;;7.57;100.00;102252.31;6334612;22;45421;-91
2022/02/27 07:38:17;;;;;;;;;9.25;7.50;;;;;7.60;100.00;102260.38;6359579;22;45358;-91
2022/02/27 07:40:42;;;;;;;;;3.50;3.25;;;;;7.67;100.00;102263.50;6332584;22;45536;-91
2022/02/27 07:43:08;;;;;;;;;5.50;4.50;;;;;7.73;100.00;102276.16;6333197;22;47449;-91
2022/02/27 07:45:33;;;;;;;;;7.25;4.75;;;;;7.77;100.00;102270.38;6333561;22;45903;-91
2022/02/27 07:47:58;;;;;;;;;5.00;5.00;;;;;7.81;100.00;102264.63;6333691;22;45252;-91
2022/02/27 07:50:24;;;;;;;;;5.00;4.50;;;;;7.82;100.00;102271.69;6361749;22;45462;-91
2022/02/27 07:52:49;;;;;;;;;6.50;5.00;;;;;7.87;100.00;102266.81;6333580;22;47031;-90
2022/02/27 07:55:18;;;;;;;;;5.75;5.75;;;;;7.93;100.00;102273.47;6337026;22;45321;-91
2022/02/27 07:57:43;;;;;;;;;5.50;5.50;;;;;7.97;100.00;102266.78;6335563;22;45321;-91
2022/02/27 08:00:09;;;;;;;;;3.25;3.25;;;;;8.07;100.00;102276.28;6334822;22;45258;-91
2022/02/27 08:02:34;;;;;;;;;8.25;7.50;;;;;8.07;100.00;102267.50;6335793;22;46408;-91
2022/02/27 08:05:00;;;;;;;;;7.75;7.00;;;;;8.14;100.00;102272.47;6334971;22;45924;-91
2022/02/27 08:07:25;;;;;;;;;5.00;5.00;;;;;8.16;100.00;102269.19;6334159;22;45399;-91
2022/02/27 08:09:50;;;;;;;;;8.25;6.75;;;;;8.15;100.00;102267.34;6334107;22;45545;-91
2022/02/27 08:12:16;;;;;;;;;9.00;7.25;;;;;8.19;100.00;102273.75;6332628;22;48557;-92
2022/02/27 08:14:46;;;;;;;;;4.00;4.00;;;;;8.31;100.00;102278.13;6333652;22;45348;-91
2022/02/27 08:17:11;;;;;;;;;7.50;7.00;;;;;8.38;100.00;102272.56;6335894;22;45569;-91
2022/02/27 08:19:37;;;;;;;;;5.25;5.25;;;;;8.41;100.00;102271.91;6334139;22;45265;-91
2022/02/27 08:22:02;;;;;;;;;3.75;3.00;;;;;8.45;100.00;102269.66;6333674;22;47677;-90
2022/02/27 08:24:28;;;;;;;;;3.25;2.00;;;;;8.53;100.00;102267.63;6335055;22;45274;-92
2022/02/27 08:26:53;;;;;;;;;5.00;5.00;;;;;8.58;100.00;102282.03;6333169;22;45394;-91
2022/02/27 08:29:19;;;;;;;;;6.25;5.00;;;;;8.57;100.00;102272.34;6332473;22;45751;-92
2022/02/27 08:31:45;;;;;;;;;4.75;4.75;;;;;8.59;100.00;102276.00;6331343;22;46934;-91
2022/02/27 08:34:10;;;;;;;;;5.50;5.00;;;;;8.62;100.00;102277.03;6334148;22;45266;-92
2022/02/27 08:36:37;;;;;;;;;3.25;2.00;;;;;8.61;100.00;102276.13;6358363;22;45392;-92
2022/02/27 08:39:03;;;;;;;;;6.75;5.75;;;;;8.71;100.00;102272.53;6332566;22;45440;-91
2022/02/27 08:41:29;;;;;;;;;8.50;5.25;;;;;8.77;100.00;102291.34;6356796;22;48030;-93
2022/02/27 08:43:54;;;;;;;;;2.50;2.50;;;;;8.84;100.00;102284.84;6359496;22;45845;-91
2022/02/27 08:46:20;;;;;;;;;7.75;5.00;;;;;8.90;100.00;102285.34;6332132;22;45337;-92
2022/02/27 08:48:46;;;;;;;;;5.00;4.00;;;;;8.92;100.00;102274.97;6334639;22;45356;-92
2022/02/27 08:51:12;;;;;;;;;9.00;5.75;;;;;8.97;100.00;102277.97;6331737;22;46982;-93
2022/02/27 08:53:37;;;;;;;;;7.50;6.00;;;;;9.02;100.00;102282.75;6333005;22;45970;-92
2022/02/27 08:56:03;;;;;;;;;5.50;5.00;;;;;9.05;100.00;102274.22;6332994;22;45354;-91
2022/02/27 08:58:28;;;;;;;;;5.25;3.00;;;;;9.13;100.00;102277.41;6332226;22;45405;-93
2022/02/27 09:00:54;;;;;;;;;5.00;4.00;;;;;9.20;100.00;102282.31;6334813;22;47246;-91
2022/02/27 09:03:24;;;;;;;;;2.25;2.25;;;;;9.23;100.00;102279.00;6333309;22;45238;-92
2022/02/27 09:05:52;;;;;;;;;7.25;5.75;;;;;9.28;100.00;102285.53;6359871;22;45378;-92
2022/02/27 09:08:18;;;;;;;;;3.25;2.00;;;;;9.39;100.00;102287.25;6333823;22;45495;-89
2022/02/27 09:10:44;;;;;;;;;3.50;2.75;;;;;9.57;100.00;102281.56;6332271;22;47183;-92
2022/02/27 09:13:09;;;;;;;;;5.00;2.75;;;;;9.67;100.00;102283.16;6359604;22;45649;-91
2022/02/27 09:15:35;;;;;;;;;5.00;3.00;;;;;9.67;100.00;102287.47;6335984;22;45290;-91
2022/02/27 09:18:01;;;;;;;;;4.67;2.33;;;;;9.69;100.00;102288.53;6332499;22;45458;-91
2022/02/27 09:20:26;;;;;;;;;1.00;1.00;;;;;9.71;100.00;102292.16;6339450;22;47117;-92
2022/02/27 09:22:52;;;;;;;;;2.00;2.00;;;;;9.71;100.00;102279.06;6359271;22;46018;-91
2022/02/27 09:25:17;;;;;;;;;2.00;2.00;;;;;9.77;100.00;102286.44;6336088;22;45518;-90
2022/02/27 09:27:42;;;;;;;;;4.50;4.00;;;;;9.85;100.00;102285.31;6333799;22;45459;-90
2022/02/27 09:30:08;;;;;;;;;5.67;4.67;;;;;9.90;100.00;102283.94;6335611;22;48077;-91
2022/02/27 09:32:34;;;;;;;;;5.67;4.33;;;;;9.93;100.00;102278.00;6359135;22;45416;-90
2022/02/27 09:35:01;;;;;;;;;2.67;2.67;;;;;10.11;100.00;102281.03;6333669;22;45257;-90
2022/02/27 09:37:27;;;;;;;;;4.33;4.33;;;;;10.22;100.00;102280.91;6332731;22;45304;-90
2022/02/27 09:39:53;;;;;;;;;6.00;5.75;;;;;10.28;100.00;102274.38;6332607;22;47197;-90
2022/02/27 09:42:19;;;;;;;;;3.00;3.00;;;;;10.29;100.00;102277.91;6357658;22;45264;-91
2022/02/27 09:44:45;;;;;;;;;3.00;3.00;;;;;10.39;100.00;102276.84;6338253;22;45227;-90
2022/02/27 09:47:13;;;;;;;;;5.00;3.00;;;;;10.48;100.00;102276.59;6333356;22;45241;-91
2022/02/27 09:49:42;;;;;;;;;5.00;5.00;;;;;10.46;100.00;102271.22;6336947;22;46154;-91
2022/02/27 09:52:07;;;;;;;;;5.25;3.00;;;;;10.49;100.00;102281.94;6336316;22;45383;-90
2022/02/27 09:54:34;;;;;;;;;5.50;4.00;;;;;10.49;100.00;102271.44;6336019;22;45242;-90
2022/02/27 09:56:59;;;;;;;;;5.00;5.00;;;;;10.52;100.00;102270.78;6359183;22;45476;-90
2022/02/27 09:59:24;;;;;;;;;3.25;3.25;;;;;10.53;100.00;102267.38;6335199;22;47244;-91
2022/02/27 10:02:03;;;;;;;;;5.00;5.00;;;;;10.59;100.00;102270.41;6336315;22;45668;-90
2022/02/27 10:04:39;;;;;;;;;3.00;3.00;;;;;10.60;100.00;102276.56;6336071;22;45233;-89
2022/02/27 10:07:08;;;;;;;;;2.67;2.67;;;;;10.64;100.00;102278.63;6335762;22;45376;-90
2022/02/27 10:09:34;;;;;;;;;5.75;3.50;;;;;10.60;100.00;102277.50;6333913;22;47558;-90
2022/02/27 10:12:12;;;;;;;;;4.25;4.25;;;;;10.75;100.00;102284.63;6332176;22;45320;-90
2022/02/27 10:14:38;;;;;;;;;3.33;3.33;;;;;10.71;100.00;102286.13;6335022;22;45307;-90
2022/02/27 10:17:04;;;;;;;;;5.33;4.33;;;;;10.78;100.00;102292.72;6360344;22;45430;-90
2022/02/27 10:19:30;;;;;;;;;3.33;3.33;;;;;10.78;100.00;102276.03;6334365;22;47413;-90
2022/02/27 10:21:56;;;;;;;;;3.00;3.00;;;;;10.83;100.00;102269.38;6337570;22;45453;-90
2022/02/27 10:24:21;;;;;;;;;5.00;3.00;;;;;10.78;100.00;102270.78;6336037;22;45782;-90
2022/02/27 10:26:49;;;;;;;;;5.67;5.67;;;;;10.86;100.00;102269.59;6335482;22;45438;-88
2022/02/27 10:29:25;;;;;;;;;3.67;2.00;;;;;10.91;100.00;102286.59;6334609;22;47201;-91
2022/02/27 10:31:55;;;;;;;;;5.00;3.33;;;;;10.96;100.00;102284.28;6335651;22;45304;-90
2022/02/27 10:34:26;;;;;;;;;6.00;6.00;;;;;10.98;100.00;102285.28;6335861;22;45465;-90
2022/02/27 10:36:51;;;;;;;;;7.00;6.00;;;;;10.98;100.00;102280.03;6337436;22;45259;-90
2022/02/27 10:39:35;;;;;;;;;6.00;6.00;;;;;11.19;100.00;102279.69;6336855;22;45430;-90
2022/02/27 10:42:20;;;;;;;;;6.00;3.00;;;;;11.25;100.00;102271.31;6332764;22;45261;-90
2022/02/27 10:44:58;;;;;;;;;3.00;3.00;;;;;11.30;100.00;102272.53;6337550;22;45372;-90
2022/02/27 10:47:29;;;;;;;;;3.33;3.00;;;;;11.32;100.00;102269.97;6336848;22;45286;-89
2022/02/27 10:49:56;;;;;;;;;6.00;4.00;;;;;11.39;100.00;102262.59;6336120;22;46694;-89
2022/02/27 10:52:30;;;;;;;;;7.00;6.00;;;;;11.53;100.00;102269.59;6336318;22;45346;-89
2022/02/27 10:54:56;;;;;;;;;7.00;5.33;;;;;11.49;100.00;102258.88;6337862;22;45301;-90
2022/02/27 10:57:32;;;;;;;;;6.00;6.00;;;;;11.62;100.00;102267.59;6335233;22;45298;-90
2022/02/27 11:00:10;;;;;;;;;6.33;6.33;;;;;11.61;100.00;102261.41;6333868;22;48326;-91
2022/02/27 11:02:37;;;;;;;;;4.33;4.33;;;;;11.60;100.00;102269.19;6335873;22;45316;-90
2022/02/27 11:05:03;;;;;;;;;9.67;7.00;;;;;11.66;100.00;102274.84;6352954;22;44729;-89
2022/02/27 11:07:28;;;;;;;;;5.00;3.67;;;;;11.75;100.00;102268.38;6358128;22;45364;-90
2022/02/27 11:09:54;;;;;;;;;6.67;4.33;;;;;11.78;100.00;102265.94;6355751;22;46838;-91
2022/02/27 11:12:20;;;;;;;;;6.00;6.00;;;;;11.83;100.00;102267.13;6367337;22;46139;-91
2022/02/27 11:14:46;;;;;;;;;6.00;4.00;;;;;11.84;100.00;102266.34;6337356;22;45303;-91
2022/02/27 11:17:12;;;;;;;;;3.00;3.00;;;;;11.89;100.00;102267.56;6333589;22;45467;-90